createdAt,value
2017-08-17T00:00:24.248Z,20.67
2017-08-17T00:01:23.959Z,20.66
2017-08-17T00:02:23.956Z,20.6
2017-08-17T00:03:23.658Z,20.62
2017-08-17T00:04:24.280Z,20.56
2017-08-17T00:05:23.658Z,20.63
2017-08-17T00:06:24.276Z,20.58
2017-08-17T00:07:24.274Z,20.59
2017-08-17T00:08:24.277Z,20.56
2017-08-17T00:09:23.979Z,20.55
2017-08-17T00:10:24.275Z,20.55
2017-08-17T00:11:24.288Z,20.44
2017-08-17T00:12:24.302Z,20.5
2017-08-17T00:13:23.980Z,20.47
2017-08-17T00:14:24.284Z,20.48
2017-08-17T00:15:24.289Z,20.55
2017-08-17T00:16:24.292Z,20.5
2017-08-17T00:17:24.005Z,20.63
2017-08-17T00:18:24.308Z,20.62
2017-08-17T00:19:24.313Z,20.7
2017-08-17T00:20:24.304Z,20.66
2017-08-17T00:21:24.008Z,20.72
2017-08-17T00:22:24.318Z,20.69
2017-08-17T00:23:24.044Z,20.66
2017-08-17T00:24:24.332Z,20.69
2017-08-17T00:25:24.326Z,20.66
2017-08-17T00:26:24.336Z,20.56
2017-08-17T00:27:24.345Z,20.58
2017-08-17T00:28:23.750Z,20.56
2017-08-17T00:29:24.792Z,20.48
2017-08-17T00:30:23.761Z,20.55
2017-08-17T00:31:24.343Z,20.48
2017-08-17T00:32:24.348Z,20.41
2017-08-17T00:33:24.651Z,20.5
2017-08-17T00:34:24.439Z,20.43
2017-08-17T00:35:24.059Z,20.29
2017-08-17T00:36:24.354Z,20.43
2017-08-17T00:37:24.369Z,20.37
2017-08-17T00:38:24.354Z,20.36
2017-08-17T00:39:24.383Z,20.41
2017-08-17T00:40:24.360Z,20.39
2017-08-17T00:41:24.373Z,20.43
2017-08-17T00:42:24.373Z,20.39
2017-08-17T00:43:24.372Z,20.31
2017-08-17T00:44:24.136Z,20.34
2017-08-17T00:45:24.075Z,20.32
2017-08-17T00:46:24.415Z,20.22
2017-08-17T00:47:24.385Z,20.18
2017-08-17T00:48:24.121Z,20.25
2017-08-17T00:49:24.427Z,20.31
2017-08-17T00:50:24.403Z,20.16
2017-08-17T00:51:24.417Z,20.34
2017-08-17T00:52:24.423Z,20.31
2017-08-17T00:53:24.408Z,20.29
2017-08-17T00:54:24.102Z,20.34
2017-08-17T00:55:24.404Z,20.32
2017-08-17T00:56:24.408Z,20.36
2017-08-17T00:57:24.135Z,20.32
2017-08-17T00:58:24.107Z,20.32
2017-08-17T00:59:24.112Z,20.34
2017-08-17T01:00:24.418Z,20.4
2017-08-17T01:01:24.125Z,20.29
2017-08-17T01:02:24.120Z,20.25
2017-08-17T01:03:24.426Z,20.28
2017-08-17T01:04:24.433Z,20.26
2017-08-17T01:05:24.429Z,20.28
2017-08-17T01:06:24.440Z,20.29
2017-08-17T01:07:24.435Z,20.16
2017-08-17T01:08:24.445Z,20.16
2017-08-17T01:09:24.146Z,20.25
2017-08-17T01:10:24.143Z,20.22
2017-08-17T01:11:24.453Z,20.18
2017-08-17T01:12:24.154Z,20.19
2017-08-17T01:13:24.157Z,20.25
2017-08-17T01:14:24.516Z,20.16
2017-08-17T01:15:24.477Z,20.14
2017-08-17T01:16:24.177Z,20.21
2017-08-17T01:17:24.180Z,20.21
2017-08-17T01:18:24.483Z,20.22
2017-08-17T01:19:24.179Z,20.24
2017-08-17T01:20:24.208Z,20.22
2017-08-17T01:21:24.488Z,20.16
2017-08-17T01:22:24.489Z,20.21
2017-08-17T01:23:24.489Z,20.24
2017-08-17T01:24:24.489Z,20.22
2017-08-17T01:25:24.487Z,20.26
2017-08-17T01:26:24.188Z,20.32
2017-08-17T01:27:24.513Z,20.36
2017-08-17T01:28:24.200Z,20.22
2017-08-17T01:29:24.503Z,20.14
2017-08-17T01:30:27.760Z,20.24
2017-08-17T01:31:24.213Z,20.22
2017-08-17T01:32:24.211Z,20.24
2017-08-17T01:33:23.905Z,20.21
2017-08-17T01:34:24.214Z,20.22
2017-08-17T01:35:24.616Z,20.21
2017-08-17T01:36:24.221Z,20.29
2017-08-17T01:37:24.521Z,20.28
2017-08-17T01:38:24.528Z,20.18
2017-08-17T01:39:24.526Z,20.19
2017-08-17T01:40:24.533Z,20.22
2017-08-17T01:41:24.225Z,20.14
2017-08-17T01:42:24.236Z,20.21
2017-08-17T01:43:24.561Z,20.16
2017-08-17T01:44:24.544Z,20.13
2017-08-17T01:45:24.241Z,20.09
2017-08-17T01:46:24.239Z,20.04
2017-08-17T01:47:24.552Z,20.06
2017-08-17T01:48:24.548Z,20.1
2017-08-17T01:49:24.587Z,20
2017-08-17T01:50:24.549Z,20.1
2017-08-17T01:51:24.564Z,20.06
2017-08-17T01:52:24.555Z,20.07
2017-08-17T01:53:24.570Z,20.02
2017-08-17T01:54:24.589Z,19.91
2017-08-17T01:55:24.589Z,20.02
2017-08-17T01:56:24.591Z,20.03
2017-08-17T01:57:24.572Z,20
2017-08-17T01:58:24.590Z,20
2017-08-17T01:59:24.273Z,20.02
2017-08-17T02:00:24.595Z,19.96
2017-08-17T02:01:24.596Z,19.94
2017-08-17T02:02:24.592Z,19.94
2017-08-17T02:03:24.298Z,20
2017-08-17T02:04:24.594Z,19.94
2017-08-17T02:05:24.598Z,19.94
2017-08-17T02:06:24.616Z,19.94
2017-08-17T02:07:24.308Z,19.95
2017-08-17T02:08:24.602Z,19.99
2017-08-17T02:09:24.003Z,20
2017-08-17T02:10:24.605Z,19.88
2017-08-17T02:11:24.605Z,20.07
2017-08-17T02:12:24.611Z,20.02
2017-08-17T02:13:24.625Z,20.06
2017-08-17T02:14:24.308Z,20.03
2017-08-17T02:15:24.321Z,20.04
2017-08-17T02:16:24.316Z,19.99
2017-08-17T02:17:24.629Z,20.02
2017-08-17T02:18:24.622Z,20.03
2017-08-17T02:19:24.629Z,20.09
2017-08-17T02:20:24.663Z,20.02
2017-08-17T02:21:24.645Z,19.99
2017-08-17T02:22:24.643Z,19.99
2017-08-17T02:23:24.639Z,20.02
2017-08-17T02:24:24.638Z,20.03
2017-08-17T02:25:24.334Z,20.07
2017-08-17T02:26:24.666Z,20.04
2017-08-17T02:27:24.656Z,19.89
2017-08-17T02:28:24.665Z,19.99
2017-08-17T02:29:24.661Z,19.96
2017-08-17T02:30:24.358Z,19.91
2017-08-17T02:31:28.858Z,19.84
2017-08-17T02:32:24.664Z,19.82
2017-08-17T02:33:24.666Z,19.82
2017-08-17T02:34:24.358Z,19.81
2017-08-17T02:35:24.677Z,19.86
2017-08-17T02:36:24.674Z,19.82
2017-08-17T02:37:24.681Z,19.76
2017-08-17T02:38:24.388Z,19.77
2017-08-17T02:39:24.678Z,19.71
2017-08-17T02:40:24.682Z,19.71
2017-08-17T02:41:24.697Z,19.64
2017-08-17T02:42:24.683Z,19.69
2017-08-17T02:43:24.082Z,19.54
2017-08-17T02:44:24.390Z,19.58
2017-08-17T02:45:24.688Z,19.69
2017-08-17T02:46:24.450Z,19.63
2017-08-17T02:47:24.694Z,19.69
2017-08-17T02:48:24.400Z,19.69
2017-08-17T02:49:24.398Z,19.74
2017-08-17T02:50:24.698Z,19.74
2017-08-17T02:51:24.710Z,19.74
2017-08-17T02:52:24.406Z,19.69
2017-08-17T02:53:24.714Z,19.74
2017-08-17T02:54:24.420Z,19.73
2017-08-17T02:55:24.409Z,19.79
2017-08-17T02:56:24.716Z,19.77
2017-08-17T02:57:24.729Z,19.82
2017-08-17T02:58:24.721Z,19.82
2017-08-17T02:59:24.729Z,19.79
2017-08-17T03:00:24.732Z,19.82
2017-08-17T03:01:27.870Z,19.82
2017-08-17T03:02:24.421Z,19.85
2017-08-17T03:03:24.728Z,19.85
2017-08-17T03:04:24.731Z,19.82
2017-08-17T03:05:24.429Z,19.84
2017-08-17T03:06:24.439Z,19.79
2017-08-17T03:07:24.740Z,19.81
2017-08-17T03:08:24.747Z,19.82
2017-08-17T03:09:24.756Z,19.86
2017-08-17T03:10:24.756Z,19.85
2017-08-17T03:11:24.754Z,19.84
2017-08-17T03:12:24.752Z,19.84
2017-08-17T03:13:24.145Z,19.79
2017-08-17T03:14:24.758Z,19.84
2017-08-17T03:15:24.762Z,19.84
2017-08-17T03:16:24.477Z,19.85
2017-08-17T03:17:24.761Z,19.85
2017-08-17T03:18:24.459Z,19.84
2017-08-17T03:19:24.762Z,19.82
2017-08-17T03:20:24.769Z,19.85
2017-08-17T03:21:24.770Z,19.81
2017-08-17T03:22:24.783Z,19.77
2017-08-17T03:23:24.469Z,19.82
2017-08-17T03:24:24.784Z,19.77
2017-08-17T03:25:24.480Z,19.81
2017-08-17T03:26:24.177Z,19.85
2017-08-17T03:27:24.782Z,19.84
2017-08-17T03:28:24.788Z,19.84
2017-08-17T03:29:24.790Z,19.81
2017-08-17T03:30:24.501Z,19.85
2017-08-17T03:31:24.495Z,19.81
2017-08-17T03:32:25.938Z,19.84
2017-08-17T03:33:24.796Z,19.76
2017-08-17T03:34:24.870Z,19.82
2017-08-17T03:35:24.852Z,19.81
2017-08-17T03:36:24.803Z,19.88
2017-08-17T03:37:24.505Z,19.82
2017-08-17T03:38:24.815Z,19.77
2017-08-17T03:39:24.513Z,19.88
2017-08-17T03:40:24.819Z,19.86
2017-08-17T03:41:24.820Z,19.96
2017-08-17T03:42:24.546Z,19.88
2017-08-17T03:43:24.520Z,19.74
2017-08-17T03:44:24.822Z,19.85
2017-08-17T03:45:24.526Z,19.81
2017-08-17T03:46:24.832Z,19.74
2017-08-17T03:47:24.829Z,19.67
2017-08-17T03:48:24.828Z,19.67
2017-08-17T03:49:24.534Z,19.64
2017-08-17T03:50:24.834Z,19.66
2017-08-17T03:51:24.842Z,19.63
2017-08-17T03:52:24.843Z,19.51
2017-08-17T03:53:24.850Z,19.49
2017-08-17T03:54:24.549Z,19.47
2017-08-17T03:55:24.558Z,19.49
2017-08-17T03:56:24.850Z,19.47
2017-08-17T03:57:24.593Z,19.48
2017-08-17T03:58:24.858Z,19.51
2017-08-17T03:59:24.876Z,19.49
2017-08-17T04:00:24.561Z,19.41
2017-08-17T04:01:24.259Z,19.45
2017-08-17T04:02:25.022Z,19.4
2017-08-17T04:03:24.879Z,19.54
2017-08-17T04:04:24.877Z,19.51
2017-08-17T04:05:24.882Z,19.52
2017-08-17T04:06:24.887Z,19.55
2017-08-17T04:07:24.279Z,19.49
2017-08-17T04:08:24.577Z,19.54
2017-08-17T04:09:24.886Z,19.54
2017-08-17T04:10:24.881Z,19.56
2017-08-17T04:11:24.899Z,19.54
2017-08-17T04:12:24.891Z,19.59
2017-08-17T04:13:24.615Z,19.59
2017-08-17T04:14:24.911Z,19.67
2017-08-17T04:15:24.910Z,19.71
2017-08-17T04:16:24.891Z,19.73
2017-08-17T04:17:24.606Z,19.73
2017-08-17T04:18:24.603Z,19.7
2017-08-17T04:19:24.617Z,19.64
2017-08-17T04:20:24.913Z,19.74
2017-08-17T04:21:24.914Z,19.73
2017-08-17T04:22:24.616Z,19.67
2017-08-17T04:23:24.607Z,19.71
2017-08-17T04:24:24.940Z,19.7
2017-08-17T04:25:24.921Z,19.67
2017-08-17T04:26:24.947Z,19.77
2017-08-17T04:27:24.628Z,19.67
2017-08-17T04:28:24.933Z,19.7
2017-08-17T04:29:24.941Z,19.67
2017-08-17T04:30:24.635Z,19.7
2017-08-17T04:31:24.625Z,19.64
2017-08-17T04:32:24.343Z,19.64
2017-08-17T04:33:24.650Z,19.76
2017-08-17T04:34:24.646Z,19.74
2017-08-17T04:35:24.944Z,19.74
2017-08-17T04:36:24.958Z,19.85
2017-08-17T04:37:24.953Z,19.79
2017-08-17T04:38:24.951Z,19.81
2017-08-17T04:39:24.949Z,19.84
2017-08-17T04:40:24.956Z,19.84
2017-08-17T04:41:24.665Z,19.84
2017-08-17T04:42:24.958Z,19.77
2017-08-17T04:43:24.680Z,19.81
2017-08-17T04:44:24.981Z,19.81
2017-08-17T04:45:24.962Z,19.84
2017-08-17T04:46:24.958Z,19.85
2017-08-17T04:47:24.979Z,19.85
2017-08-17T04:48:25.021Z,19.99
2017-08-17T04:49:25.006Z,20.06
2017-08-17T04:50:24.770Z,20.13
2017-08-17T04:51:24.684Z,20.37
2017-08-17T04:52:24.980Z,20.39
2017-08-17T04:53:25.018Z,20.48
2017-08-17T04:54:25.016Z,20.66
2017-08-17T04:55:24.990Z,20.69
2017-08-17T04:56:24.398Z,20.67
2017-08-17T04:57:25.010Z,20.67
2017-08-17T04:58:25.014Z,20.59
2017-08-17T04:59:25.012Z,20.66
2017-08-17T05:00:25.011Z,20.7
2017-08-17T05:01:25.013Z,20.74
2017-08-17T05:02:25.021Z,20.81
2017-08-17T05:03:25.323Z,20.87
2017-08-17T05:04:25.014Z,20.95
2017-08-17T05:05:25.014Z,21.09
2017-08-17T05:06:25.030Z,21.25
2017-08-17T05:07:24.741Z,21.37
2017-08-17T05:08:25.028Z,21.5
2017-08-17T05:09:24.429Z,21.57
2017-08-17T05:10:24.745Z,21.67
2017-08-17T05:11:25.047Z,21.72
2017-08-17T05:12:24.753Z,21.83
2017-08-17T05:13:24.754Z,21.79
2017-08-17T05:14:25.046Z,21.88
2017-08-17T05:15:25.058Z,21.82
2017-08-17T05:16:25.055Z,21.92
2017-08-17T05:17:25.056Z,21.89
2017-08-17T05:18:26.315Z,21.79
2017-08-17T05:19:25.066Z,21.72
2017-08-17T05:20:24.769Z,21.8
2017-08-17T05:21:25.074Z,21.92
2017-08-17T05:22:25.076Z,22.1
2017-08-17T05:23:25.082Z,22.18
2017-08-17T05:24:24.787Z,22.36
2017-08-17T05:25:24.788Z,22.51
2017-08-17T05:26:24.807Z,22.62
2017-08-17T05:27:24.798Z,22.78
2017-08-17T05:28:25.102Z,22.88
2017-08-17T05:29:24.804Z,23.03
2017-08-17T05:30:24.806Z,22.98
2017-08-17T05:31:24.812Z,22.76
2017-08-17T05:32:25.123Z,22.62
2017-08-17T05:33:25.127Z,22.44
2017-08-17T05:34:25.138Z,22.26
2017-08-17T05:35:25.135Z,22.1
2017-08-17T05:36:25.136Z,21.95
2017-08-17T05:37:25.143Z,21.89
2017-08-17T05:38:25.143Z,21.67
2017-08-17T05:39:25.155Z,21.55
2017-08-17T05:40:25.153Z,21.54
2017-08-17T05:41:25.161Z,21.51
2017-08-17T05:42:25.178Z,21.4
2017-08-17T05:43:24.862Z,21.35
2017-08-17T05:44:25.187Z,21.39
2017-08-17T05:45:24.874Z,21.37
2017-08-17T05:46:25.185Z,21.39
2017-08-17T05:47:24.881Z,21.4
2017-08-17T05:48:25.188Z,21.42
2017-08-17T05:49:24.889Z,21.43
2017-08-17T05:50:25.203Z,21.37
2017-08-17T05:51:25.196Z,21.43
2017-08-17T05:52:25.197Z,21.52
2017-08-17T05:53:25.223Z,21.58
2017-08-17T05:54:24.908Z,21.57
2017-08-17T05:55:25.208Z,21.61
2017-08-17T05:56:24.915Z,21.64
2017-08-17T05:57:25.235Z,21.66
2017-08-17T05:58:25.219Z,21.67
2017-08-17T05:59:25.226Z,21.67
2017-08-17T06:00:24.940Z,21.75
2017-08-17T06:01:25.230Z,21.77
2017-08-17T06:02:25.249Z,21.88
2017-08-17T06:03:25.239Z,21.82
2017-08-17T06:04:25.242Z,21.91
2017-08-17T06:05:25.247Z,21.92
2017-08-17T06:06:24.955Z,22.04
2017-08-17T06:07:25.253Z,22.06
2017-08-17T06:08:25.262Z,22.1
2017-08-17T06:09:25.262Z,22.33
2017-08-17T06:10:25.270Z,22.54
2017-08-17T06:11:25.272Z,22.7
2017-08-17T06:12:25.273Z,22.8
2017-08-17T06:13:25.281Z,22.9
2017-08-17T06:14:25.282Z,22.96
2017-08-17T06:15:25.298Z,22.98
2017-08-17T06:16:25.299Z,23.03
2017-08-17T06:17:24.991Z,23.21
2017-08-17T06:18:25.298Z,23.12
2017-08-17T06:19:25.303Z,23.02
2017-08-17T06:20:25.021Z,23.12
2017-08-17T06:21:25.030Z,23.15
2017-08-17T06:22:25.316Z,23.1
2017-08-17T06:23:25.319Z,23.28
2017-08-17T06:24:25.323Z,23.23
2017-08-17T06:25:25.337Z,23.34
2017-08-17T06:26:25.334Z,23.41
2017-08-17T06:27:25.045Z,23.44
2017-08-17T06:28:25.340Z,23.46
2017-08-17T06:29:25.346Z,23.39
2017-08-17T06:30:25.353Z,23.27
2017-08-17T06:31:25.363Z,23.25
2017-08-17T06:32:25.358Z,23.18
2017-08-17T06:33:25.363Z,23.43
2017-08-17T06:34:26.184Z,23.69
2017-08-17T06:35:25.399Z,24.13
2017-08-17T06:36:25.380Z,24.63
2017-08-17T06:37:25.391Z,25.07
2017-08-17T06:38:25.389Z,25.66
2017-08-17T06:39:25.395Z,25.93
2017-08-17T06:40:25.411Z,26.53
2017-08-17T06:41:25.411Z,26.74
2017-08-17T06:42:25.412Z,26.9
2017-08-17T06:43:25.113Z,26.81
2017-08-17T06:44:25.424Z,27
2017-08-17T06:45:25.428Z,27.11
2017-08-17T06:46:25.444Z,27.14
2017-08-17T06:47:25.466Z,27.29
2017-08-17T06:48:25.461Z,27.51
2017-08-17T06:49:26.265Z,27.83
2017-08-17T06:50:25.481Z,28.1
2017-08-17T06:51:25.483Z,28.3
2017-08-17T06:52:25.475Z,28.54
2017-08-17T06:53:25.484Z,28.81
2017-08-17T06:54:25.205Z,29.02
2017-08-17T06:55:25.198Z,29.35
2017-08-17T06:56:25.516Z,29.5
2017-08-17T06:57:25.521Z,29.69
2017-08-17T06:58:25.539Z,29.86
2017-08-17T06:59:25.528Z,29.97
2017-08-17T07:00:25.245Z,30.02
2017-08-17T07:01:25.589Z,29.95
2017-08-17T07:02:25.555Z,29.75
2017-08-17T07:03:25.262Z,29.24
2017-08-17T07:04:28.769Z,28.62
2017-08-17T07:05:25.283Z,28.2
2017-08-17T07:06:25.585Z,27.65
2017-08-17T07:07:25.304Z,27.2
2017-08-17T07:08:25.292Z,26.93
2017-08-17T07:09:25.615Z,26.78
2017-08-17T07:10:25.334Z,26.97
2017-08-17T07:11:25.322Z,27.27
2017-08-17T07:12:25.329Z,27.83
2017-08-17T07:13:25.659Z,28.19
2017-08-17T07:14:25.639Z,28.57
2017-08-17T07:15:25.645Z,29.05
2017-08-17T07:16:25.653Z,29.65
2017-08-17T07:17:25.067Z,29.84
2017-08-17T07:18:25.676Z,30.13
2017-08-17T07:19:26.680Z,30.47
2017-08-17T07:20:25.378Z,30.84
2017-08-17T07:21:25.407Z,30.99
2017-08-17T07:22:25.403Z,31.33
2017-08-17T07:23:25.702Z,31.51
2017-08-17T07:24:25.414Z,31.66
2017-08-17T07:25:25.719Z,31.71
2017-08-17T07:26:25.733Z,31.89
2017-08-17T07:27:25.743Z,31.66
2017-08-17T07:28:25.156Z,31.52
2017-08-17T07:29:25.468Z,31.66
2017-08-17T07:30:25.467Z,31.58
2017-08-17T07:31:25.773Z,31.61
2017-08-17T07:32:25.783Z,31.51
2017-08-17T07:33:25.794Z,31.34
2017-08-17T07:34:25.828Z,31.14
2017-08-17T07:35:25.815Z,30.97
2017-08-17T07:36:25.832Z,30.72
2017-08-17T07:37:25.836Z,30.28
2017-08-17T07:38:25.253Z,29.91
2017-08-17T07:39:25.857Z,29.69
2017-08-17T07:40:25.555Z,29.24
2017-08-17T07:41:25.869Z,29.05
2017-08-17T07:42:25.870Z,28.96
2017-08-17T07:43:25.888Z,29.02
2017-08-17T07:44:25.590Z,29.04
2017-08-17T07:45:25.899Z,28.96
2017-08-17T07:46:25.610Z,28.75
2017-08-17T07:47:25.633Z,28.54
2017-08-17T07:48:25.914Z,28.26
2017-08-17T07:49:25.630Z,28.01
2017-08-17T07:50:25.932Z,27.87
2017-08-17T07:51:25.346Z,27.59
2017-08-17T07:52:25.659Z,27.37
2017-08-17T07:53:25.349Z,27.15
2017-08-17T07:54:25.963Z,27.11
2017-08-17T07:55:25.964Z,27.03
2017-08-17T07:56:25.982Z,26.99
2017-08-17T07:57:25.688Z,26.93
2017-08-17T07:58:25.997Z,26.89
2017-08-17T07:59:25.696Z,26.74
2017-08-17T08:00:25.997Z,27.02
2017-08-17T08:01:25.709Z,27.33
2017-08-17T08:02:26.030Z,27.48
2017-08-17T08:03:26.026Z,27.93
2017-08-17T08:04:26.030Z,28.26
2017-08-17T08:05:27.104Z,28.81
2017-08-17T08:06:26.046Z,29.31
2017-08-17T08:07:25.465Z,29.72
2017-08-17T08:08:26.066Z,30.1
2017-08-17T08:09:25.466Z,30.34
2017-08-17T08:10:26.080Z,30.39
2017-08-17T08:11:26.088Z,30.55
2017-08-17T08:12:25.781Z,30.77
2017-08-17T08:13:26.094Z,31.09
2017-08-17T08:14:25.796Z,31.39
2017-08-17T08:15:25.810Z,31.77
2017-08-17T08:16:26.117Z,32
2017-08-17T08:17:25.820Z,32.11
2017-08-17T08:18:26.135Z,32.12
2017-08-17T08:19:25.844Z,31.99
2017-08-17T08:20:25.898Z,32.12
2017-08-17T08:21:25.851Z,31.99
2017-08-17T08:22:26.161Z,31.9
2017-08-17T08:23:25.873Z,31.74
2017-08-17T08:24:25.888Z,31.66
2017-08-17T08:25:26.193Z,31.76
2017-08-17T08:26:25.901Z,31.87
2017-08-17T08:27:25.609Z,31.85
2017-08-17T08:28:26.238Z,31.93
2017-08-17T08:29:26.238Z,32.01
2017-08-17T08:30:26.255Z,31.96
2017-08-17T08:31:26.248Z,32.21
2017-08-17T08:32:26.268Z,32.33
2017-08-17T08:33:25.674Z,32.51
2017-08-17T08:34:25.980Z,32.63
2017-08-17T08:35:26.796Z,32.77
2017-08-17T08:36:26.296Z,32.74
2017-08-17T08:37:26.294Z,32.75
2017-08-17T08:38:26.309Z,32.75
2017-08-17T08:39:26.332Z,32.73
2017-08-17T08:40:26.021Z,32.77
2017-08-17T08:41:26.045Z,32.73
2017-08-17T08:42:26.344Z,32.71
2017-08-17T08:43:26.049Z,32.45
2017-08-17T08:44:26.357Z,31.97
2017-08-17T08:45:26.371Z,31.71
2017-08-17T08:46:26.397Z,31.27
2017-08-17T08:47:26.391Z,30.88
2017-08-17T08:48:26.410Z,30.5
2017-08-17T08:49:26.409Z,30.24
2017-08-17T08:50:30.422Z,29.88
2017-08-17T08:51:26.422Z,29.75
2017-08-17T08:52:26.136Z,29.51
2017-08-17T08:53:26.435Z,29.5
2017-08-17T08:54:26.163Z,29.44
2017-08-17T08:55:26.474Z,29.39
2017-08-17T08:56:26.463Z,29.26
2017-08-17T08:57:26.475Z,29.24
2017-08-17T08:58:26.492Z,29.27
2017-08-17T08:59:26.488Z,29.23
2017-08-17T09:00:26.500Z,29.26
2017-08-17T09:01:26.210Z,29.12
2017-08-17T09:02:26.519Z,29.04
2017-08-17T09:03:26.522Z,28.81
2017-08-17T09:04:26.527Z,28.69
2017-08-17T09:05:25.939Z,28.6
2017-08-17T09:06:26.546Z,28.62
2017-08-17T09:07:26.550Z,28.6
2017-08-17T09:08:26.262Z,28.64
2017-08-17T09:09:26.562Z,28.7
2017-08-17T09:10:26.266Z,28.74
2017-08-17T09:11:27.386Z,28.59
2017-08-17T09:12:26.282Z,28.62
2017-08-17T09:13:26.590Z,28.59
2017-08-17T09:14:26.600Z,28.63
2017-08-17T09:15:26.605Z,28.74
2017-08-17T09:16:26.612Z,28.62
2017-08-17T09:17:26.650Z,28.62
2017-08-17T09:18:26.625Z,28.51
2017-08-17T09:19:26.636Z,28.3
2017-08-17T09:20:26.342Z,28.26
2017-08-17T09:21:26.342Z,28.25
2017-08-17T09:22:26.652Z,28.27
2017-08-17T09:23:26.059Z,28.39
2017-08-17T09:24:26.673Z,28.29
2017-08-17T09:25:26.675Z,28.29
2017-08-17T09:26:26.683Z,28.19
2017-08-17T09:27:26.685Z,28.2
2017-08-17T09:28:26.695Z,28.17
2017-08-17T09:29:26.416Z,28.33
2017-08-17T09:30:26.406Z,28.42
2017-08-17T09:31:26.713Z,28.6
2017-08-17T09:32:26.714Z,28.76
2017-08-17T09:33:26.738Z,29.04
2017-08-17T09:34:26.430Z,29.07
2017-08-17T09:35:26.441Z,29.23
2017-08-17T09:36:28.011Z,29.38
2017-08-17T09:37:26.755Z,29.63
2017-08-17T09:38:26.756Z,29.72
2017-08-17T09:39:26.478Z,29.82
2017-08-17T09:40:26.772Z,29.91
2017-08-17T09:41:27.578Z,29.93
2017-08-17T09:42:26.785Z,29.87
2017-08-17T09:43:26.794Z,29.88
2017-08-17T09:44:26.837Z,29.9
2017-08-17T09:45:26.858Z,29.86
2017-08-17T09:46:26.511Z,29.81
2017-08-17T09:47:26.828Z,29.82
2017-08-17T09:48:26.910Z,29.88
2017-08-17T09:49:26.869Z,29.78
2017-08-17T09:50:26.880Z,29.72
2017-08-17T09:51:26.598Z,29.76
2017-08-17T09:52:26.859Z,29.79
2017-08-17T09:53:26.559Z,29.91
2017-08-17T09:54:26.863Z,29.94
2017-08-17T09:55:26.576Z,29.94
2017-08-17T09:56:26.588Z,30.02
2017-08-17T09:57:26.583Z,29.9
2017-08-17T09:58:26.611Z,29.68
2017-08-17T09:59:26.908Z,29.49
2017-08-17T10:00:26.907Z,29.29
2017-08-17T10:01:26.921Z,29.05
2017-08-17T10:02:26.922Z,29.05
2017-08-17T10:03:26.623Z,29.04
2017-08-17T10:04:26.637Z,29.07
2017-08-17T10:05:26.950Z,29.04
2017-08-17T10:06:28.069Z,29.13
2017-08-17T10:07:26.658Z,29.23
2017-08-17T10:08:26.372Z,29.02
2017-08-17T10:09:26.977Z,28.88
2017-08-17T10:10:26.743Z,28.89
2017-08-17T10:11:27.051Z,28.96
2017-08-17T10:12:26.989Z,28.98
2017-08-17T10:13:27.074Z,29.1
2017-08-17T10:14:27.154Z,29.24
2017-08-17T10:15:27.053Z,29.23
2017-08-17T10:16:27.046Z,29.29
2017-08-17T10:17:27.045Z,29.41
2017-08-17T10:18:26.826Z,29.44
2017-08-17T10:19:27.134Z,29.42
2017-08-17T10:20:27.099Z,29.38
2017-08-17T10:21:27.064Z,29.26
2017-08-17T10:22:26.760Z,29.44
2017-08-17T10:23:26.760Z,29.66
2017-08-17T10:24:26.473Z,29.84
2017-08-17T10:25:27.134Z,30
2017-08-17T10:26:27.108Z,30.03
2017-08-17T10:27:26.796Z,30.19
2017-08-17T10:28:27.100Z,30.32
2017-08-17T10:29:26.800Z,30.4
2017-08-17T10:30:26.814Z,30.47
2017-08-17T10:31:26.822Z,30.32
2017-08-17T10:32:26.819Z,30.15
2017-08-17T10:33:27.138Z,29.95
2017-08-17T10:34:26.830Z,29.71
2017-08-17T10:35:27.150Z,29.36
2017-08-17T10:36:26.861Z,29.02
2017-08-17T10:37:26.863Z,28.69
2017-08-17T10:38:27.173Z,28.39
2017-08-17T10:39:26.875Z,28.23
2017-08-17T10:40:26.880Z,27.98
2017-08-17T10:41:27.224Z,27.73
2017-08-17T10:42:26.935Z,27.71
2017-08-17T10:43:26.905Z,27.49
2017-08-17T10:44:27.232Z,27.27
2017-08-17T10:45:27.357Z,27.2
2017-08-17T10:46:26.971Z,27.15
2017-08-17T10:47:27.217Z,27.18
2017-08-17T10:48:27.280Z,26.95
2017-08-17T10:49:27.228Z,26.96
2017-08-17T10:50:26.630Z,26.84
2017-08-17T10:51:27.246Z,26.84
2017-08-17T10:52:27.267Z,26.83
2017-08-17T10:53:27.254Z,27.02
2017-08-17T10:54:26.966Z,26.95
2017-08-17T10:55:27.272Z,26.84
2017-08-17T10:56:27.274Z,26.7
2017-08-17T10:57:26.976Z,26.68
2017-08-17T10:58:27.285Z,26.66
2017-08-17T10:59:26.993Z,26.58
2017-08-17T11:00:27.001Z,26.56
2017-08-17T11:01:27.308Z,26.45
2017-08-17T11:02:27.394Z,26.44
2017-08-17T11:03:27.314Z,26.56
2017-08-17T11:04:27.457Z,26.59
2017-08-17T11:05:27.026Z,26.73
2017-08-17T11:06:27.348Z,26.75
2017-08-17T11:07:27.336Z,26.9
2017-08-17T11:08:27.375Z,27.12
2017-08-17T11:09:27.045Z,27.22
2017-08-17T11:10:27.056Z,27.4
2017-08-17T11:11:27.357Z,27.39
2017-08-17T11:12:27.081Z,27.39
2017-08-17T11:13:27.369Z,27.4
2017-08-17T11:14:27.082Z,27.51
2017-08-17T11:15:27.398Z,27.55
2017-08-17T11:16:27.096Z,27.63
2017-08-17T11:17:27.391Z,27.74
2017-08-17T11:18:26.797Z,27.7
2017-08-17T11:19:27.122Z,27.47
2017-08-17T11:20:27.411Z,27.27
2017-08-17T11:21:27.121Z,27.18
2017-08-17T11:22:28.495Z,27.21
2017-08-17T11:23:27.435Z,27.17
2017-08-17T11:24:26.832Z,27.17
2017-08-17T11:25:26.850Z,27.25
2017-08-17T11:26:27.157Z,27.25
2017-08-17T11:27:27.460Z,27.25
2017-08-17T11:28:27.477Z,27.47
2017-08-17T11:29:27.477Z,27.64
2017-08-17T11:30:27.488Z,27.7
2017-08-17T11:31:27.477Z,27.85
2017-08-17T11:32:27.185Z,27.83
2017-08-17T11:33:26.886Z,27.87
2017-08-17T11:34:27.502Z,27.7
2017-08-17T11:35:27.510Z,27.68
2017-08-17T11:36:27.539Z,27.52
2017-08-17T11:37:27.430Z,27.54
2017-08-17T11:38:27.522Z,27.58
2017-08-17T11:39:27.238Z,27.67
2017-08-17T11:40:27.231Z,27.71
2017-08-17T11:41:27.245Z,27.74
2017-08-17T11:42:27.561Z,27.89
2017-08-17T11:43:27.555Z,27.96
2017-08-17T11:44:27.261Z,28.05
2017-08-17T11:45:27.567Z,28.08
2017-08-17T11:46:27.275Z,28.19
2017-08-17T11:47:27.291Z,28.1
2017-08-17T11:48:27.597Z,28.17
2017-08-17T11:49:27.591Z,28.23
2017-08-17T11:50:27.300Z,28.35
2017-08-17T11:51:27.604Z,28.52
2017-08-17T11:52:27.307Z,28.63
2017-08-17T11:53:27.317Z,28.75
2017-08-17T11:54:27.636Z,29.04
2017-08-17T11:55:27.641Z,29.2
2017-08-17T11:56:27.633Z,29.36
2017-08-17T11:57:27.690Z,29.23
2017-08-17T11:58:27.358Z,29.07
2017-08-17T11:59:27.666Z,29.1
2017-08-17T12:00:27.358Z,29.01
2017-08-17T12:01:27.670Z,29.14
2017-08-17T12:02:27.371Z,29.29
2017-08-17T12:03:27.378Z,29.45
2017-08-17T12:04:27.695Z,29.63
2017-08-17T12:05:27.693Z,29.72
2017-08-17T12:06:27.701Z,29.76
2017-08-17T12:07:28.756Z,29.76
2017-08-17T12:08:27.733Z,29.81
2017-08-17T12:09:27.715Z,29.86
2017-08-17T12:10:27.723Z,29.84
2017-08-17T12:11:27.733Z,29.87
2017-08-17T12:12:27.740Z,29.97
2017-08-17T12:13:27.745Z,30.03
2017-08-17T12:14:27.467Z,29.82
2017-08-17T12:15:27.761Z,29.78
2017-08-17T12:16:27.770Z,29.75
2017-08-17T12:17:27.708Z,29.68
2017-08-17T12:18:27.778Z,29.63
2017-08-17T12:19:27.797Z,29.63
2017-08-17T12:20:27.490Z,29.53
2017-08-17T12:21:27.811Z,29.51
2017-08-17T12:22:27.804Z,29.44
2017-08-17T12:23:27.812Z,29.38
2017-08-17T12:24:27.821Z,29.31
2017-08-17T12:25:27.225Z,29.14
2017-08-17T12:26:27.825Z,28.93
2017-08-17T12:27:27.537Z,29.04
2017-08-17T12:28:27.601Z,29.08
2017-08-17T12:29:27.854Z,29.05
2017-08-17T12:30:27.260Z,28.97
2017-08-17T12:31:27.869Z,29.12
2017-08-17T12:32:27.578Z,29.12
2017-08-17T12:33:27.577Z,29.17
2017-08-17T12:34:27.892Z,29.16
2017-08-17T12:35:27.309Z,29.16
2017-08-17T12:36:27.613Z,29.23
2017-08-17T12:37:27.912Z,29.36
2017-08-17T12:38:31.880Z,29.29
2017-08-17T12:39:27.930Z,29.26
2017-08-17T12:40:27.942Z,29.02
2017-08-17T12:41:27.936Z,28.89
2017-08-17T12:42:27.945Z,28.75
2017-08-17T12:43:27.946Z,28.6
2017-08-17T12:44:27.965Z,28.66
2017-08-17T12:45:27.969Z,28.66
2017-08-17T12:46:27.977Z,28.64
2017-08-17T12:47:27.982Z,28.72
2017-08-17T12:48:27.983Z,28.7
2017-08-17T12:49:27.692Z,28.76
2017-08-17T12:50:27.692Z,28.76
2017-08-17T12:51:28.000Z,28.67
2017-08-17T12:52:27.709Z,28.7
2017-08-17T12:53:28.076Z,28.7
2017-08-17T12:54:28.026Z,28.84
2017-08-17T12:55:28.036Z,28.78